createdAt,value
2023-04-07T00:02:49.292Z,10.35
2023-04-07T00:07:56.523Z,10.33
2023-04-07T00:12:59.949Z,10.24
2023-04-07T00:18:02.616Z,10.22
2023-04-07T00:23:05.093Z,10.20
2023-04-07T00:28:07.724Z,10.19
2023-04-07T00:33:10.330Z,10.13
2023-04-07T00:38:13.400Z,10.06
2023-04-07T00:43:16.502Z,10.05
2023-04-07T00:48:19.366Z,10.01
2023-04-07T00:53:21.878Z,9.98
2023-04-07T00:58:24.581Z,10.01
2023-04-07T01:03:35.793Z,9.95
2023-04-07T01:09:07.998Z,9.92
2023-04-07T01:14:13.811Z,9.81
2023-04-07T01:19:37.262Z,9.77
2023-04-07T01:25:17.327Z,9.69
2023-04-07T01:30:20.851Z,9.58
2023-04-07T01:35:25.748Z,9.55
2023-04-07T01:40:30.376Z,9.48
2023-04-07T01:45:36.665Z,9.53
2023-04-07T01:50:39.821Z,9.50
2023-04-07T01:55:44.134Z,9.52
2023-04-07T02:00:47.778Z,9.47
2023-04-07T02:05:58.178Z,9.38
2023-04-07T02:11:08.164Z,9.24
2023-04-07T02:16:14.219Z,9.21
2023-04-07T02:21:21.092Z,9.12
2023-04-07T02:26:23.684Z,9.06
2023-04-07T02:31:26.195Z,8.99
2023-04-07T02:36:29.071Z,8.95
2023-04-07T02:41:31.660Z,8.98
2023-04-07T02:46:35.730Z,8.99
2023-04-07T02:51:38.441Z,9.01
2023-04-07T02:56:41.185Z,9.01
2023-04-07T03:01:43.901Z,9.01
2023-04-07T03:06:46.935Z,9.01
2023-04-07T03:11:51.415Z,9.04
2023-04-07T03:16:55.352Z,9.04
2023-04-07T03:22:00.881Z,8.92
2023-04-07T03:27:08.397Z,9.01
2023-04-07T03:32:20.797Z,9.02
2023-04-07T03:37:23.384Z,9.20
2023-04-07T03:42:26.134Z,9.22
2023-04-07T03:47:35.773Z,9.22
2023-04-07T03:52:40.502Z,9.34
2023-04-07T03:57:54.419Z,9.13
2023-04-07T04:02:57.589Z,9.00
2023-04-07T04:08:00.508Z,8.93
2023-04-07T04:13:07.066Z,9.30
2023-04-07T04:18:10.430Z,9.60
2023-04-07T04:23:13.253Z,9.58
2023-04-07T04:28:17.893Z,9.58
2023-04-07T04:33:20.671Z,9.53
2023-04-07T04:38:30.714Z,9.64
2023-04-07T04:43:42.326Z,9.62
2023-04-07T04:48:47.396Z,9.72
2023-04-07T04:53:52.942Z,9.78
2023-04-07T04:58:58.628Z,9.86
2023-04-07T05:04:11.299Z,9.93
2023-04-07T05:09:19.887Z,10.07
2023-04-07T05:14:28.118Z,10.19
2023-04-07T05:19:41.085Z,10.37
2023-04-07T05:24:50.706Z,10.43
2023-04-07T05:29:54.320Z,10.63
2023-04-07T05:35:02.270Z,10.71
2023-04-07T05:40:08.803Z,10.82
2023-04-07T05:45:11.841Z,10.91
2023-04-07T05:50:19.448Z,11.00
2023-04-07T05:55:24.337Z,11.15
2023-04-07T06:00:28.115Z,11.42
2023-04-07T06:05:48.940Z,11.52
2023-04-07T06:10:55.080Z,11.70
2023-04-07T06:15:57.879Z,11.88
2023-04-07T06:21:00.537Z,12.15
2023-04-07T06:26:03.130Z,12.04
2023-04-07T06:31:06.169Z,12.18
2023-04-07T06:36:09.034Z,12.41
2023-04-07T06:41:17.135Z,12.68
2023-04-07T06:46:20.093Z,12.86
2023-04-07T06:51:22.862Z,12.77
2023-04-07T06:56:26.449Z,13.00
2023-04-07T07:01:29.822Z,13.06
2023-04-07T07:06:33.116Z,13.19
2023-04-07T07:11:35.724Z,13.40
2023-04-07T07:16:39.643Z,13.54
2023-04-07T07:21:42.129Z,13.71
2023-04-07T07:26:46.274Z,13.92
2023-04-07T07:31:49.096Z,14.00
2023-04-07T07:36:51.721Z,14.18
2023-04-07T07:41:54.323Z,14.32
2023-04-07T07:46:56.702Z,14.41
2023-04-07T07:52:00.155Z,14.51
2023-04-07T07:57:06.604Z,14.68
2023-04-07T08:02:09.845Z,14.99
2023-04-07T08:07:12.757Z,15.25
2023-04-07T08:12:15.897Z,15.38
2023-04-07T08:17:21.271Z,15.53
2023-04-07T08:22:23.842Z,15.53
2023-04-07T08:27:26.374Z,15.62
2023-04-07T08:32:42.435Z,15.78
2023-04-07T08:37:45.166Z,15.90
2023-04-07T08:42:50.206Z,15.92
2023-04-07T08:47:59.134Z,16.06
2023-04-07T08:53:07.279Z,16.12
2023-04-07T08:58:13.648Z,16.34
2023-04-07T09:03:20.180Z,16.52
2023-04-07T09:08:22.731Z,16.65
2023-04-07T09:13:26.205Z,16.69
2023-04-07T09:18:29.946Z,16.93
2023-04-07T09:23:35.211Z,17.15
2023-04-07T09:28:45.904Z,17.11
2023-04-07T09:33:52.050Z,16.99
2023-04-07T09:38:55.010Z,17.22
2023-04-07T09:43:58.746Z,17.22
2023-04-07T09:49:05.610Z,17.38
2023-04-07T09:54:09.660Z,17.77
2023-04-07T09:59:12.638Z,18.05
2023-04-07T10:04:17.918Z,18.37
2023-04-07T10:09:22.833Z,18.72
2023-04-07T10:14:32.066Z,18.86
2023-04-07T10:19:36.397Z,19.00
2023-04-07T10:24:42.802Z,19.23
2023-04-07T10:29:52.263Z,19.42
2023-04-07T10:34:58.781Z,19.60
2023-04-07T10:40:19.783Z,19.75
2023-04-07T10:45:52.487Z,19.95
2023-04-07T10:51:21.919Z,19.91
2023-04-07T10:56:26.214Z,20.13
2023-04-07T11:01:29.245Z,20.36
2023-04-07T11:06:32.370Z,21.27
2023-04-07T11:11:40.377Z,21.97
2023-04-07T11:16:44.143Z,22.18
2023-04-07T11:21:47.050Z,22.25
2023-04-07T11:26:50.682Z,23.23
2023-04-07T11:31:53.656Z,23.05
2023-04-07T11:37:00.042Z,23.72
2023-04-07T11:42:02.555Z,23.36
2023-04-07T11:47:05.906Z,23.00
2023-04-07T11:52:08.553Z,24.34
2023-04-07T11:57:14.280Z,24.88
2023-04-07T12:02:36.561Z,25.03
2023-04-07T12:07:42.219Z,25.27
2023-04-07T12:12:46.890Z,25.51
2023-04-07T12:17:49.864Z,25.81
2023-04-07T12:22:53.209Z,26.08
2023-04-07T12:27:56.603Z,26.18
2023-04-07T12:32:59.422Z,26.27
2023-04-07T12:38:02.111Z,26.23
2023-04-07T12:43:07.989Z,26.31
2023-04-07T12:48:10.594Z,26.45
2023-04-07T12:53:16.130Z,26.53
2023-04-07T12:58:19.540Z,26.15
2023-04-07T13:03:22.164Z,24.09
2023-04-07T13:08:25.027Z,24.80
2023-04-07T13:13:27.640Z,25.70
2023-04-07T13:18:30.333Z,25.99
2023-04-07T13:23:42.705Z,24.31
2023-04-07T13:28:56.793Z,24.58
2023-04-07T13:33:59.486Z,24.62
2023-04-07T13:39:02.441Z,24.56
2023-04-07T13:44:05.318Z,24.38
2023-04-07T13:49:08.732Z,24.57
2023-04-07T13:54:12.052Z,24.46
2023-04-07T13:59:14.778Z,23.94
2023-04-07T14:04:17.543Z,23.89
2023-04-07T14:09:20.249Z,23.80
2023-04-07T14:14:23.082Z,22.95
2023-04-07T14:19:25.690Z,22.39
2023-04-07T14:24:28.112Z,22.34
2023-04-07T14:29:30.688Z,22.11
2023-04-07T14:34:33.232Z,21.69
2023-04-07T14:39:35.949Z,21.30
2023-04-07T14:44:38.618Z,20.70
2023-04-07T14:49:41.122Z,19.74
2023-04-07T14:54:43.945Z,19.19
2023-04-07T14:59:47.876Z,19.26
2023-04-07T15:04:50.844Z,19.04
2023-04-07T15:09:54.276Z,18.37
2023-04-07T15:14:56.899Z,18.01
2023-04-07T15:19:59.422Z,17.59
2023-04-07T15:25:03.620Z,17.29
2023-04-07T15:30:06.789Z,16.99
2023-04-07T15:35:09.593Z,16.67
2023-04-07T15:40:12.585Z,16.40
2023-04-07T15:45:15.186Z,16.13
2023-04-07T15:50:17.777Z,15.97
2023-04-07T15:55:20.475Z,15.74
2023-04-07T16:00:23.454Z,15.57
2023-04-07T16:05:26.049Z,15.42
2023-04-07T16:10:28.641Z,15.26
2023-04-07T16:15:39.963Z,15.15
2023-04-07T16:20:43.566Z,14.97
2023-04-07T16:25:46.140Z,14.86
2023-04-07T16:30:48.754Z,14.66
2023-04-07T16:35:51.308Z,14.60
2023-04-07T16:41:03.242Z,14.49
2023-04-07T16:46:06.993Z,14.40
2023-04-07T16:51:09.560Z,14.27
2023-04-07T16:56:22.537Z,14.17
2023-04-07T17:01:24.965Z,14.04
2023-04-07T17:06:27.840Z,13.95
2023-04-07T17:11:30.574Z,13.82
2023-04-07T17:16:33.169Z,13.73
2023-04-07T17:21:36.048Z,13.68
2023-04-07T17:26:38.702Z,13.60
2023-04-07T17:31:41.451Z,13.49
2023-04-07T17:36:44.091Z,13.42
2023-04-07T17:41:47.829Z,13.31
2023-04-07T17:46:50.649Z,13.25
2023-04-07T17:51:53.155Z,13.15
2023-04-07T17:56:55.886Z,13.08
2023-04-07T18:01:58.538Z,12.98
2023-04-07T18:07:01.141Z,12.87
2023-04-07T18:12:03.922Z,12.80
2023-04-07T18:17:06.390Z,12.71
2023-04-07T18:22:12.019Z,12.70
2023-04-07T18:27:14.670Z,12.67
2023-04-07T18:32:17.328Z,12.64
2023-04-07T18:37:19.988Z,12.62
2023-04-07T18:42:22.612Z,12.53
2023-04-07T18:47:25.232Z,12.54
2023-04-07T18:52:27.839Z,12.50
2023-04-07T18:57:30.384Z,12.49
2023-04-07T19:02:33.227Z,12.48
2023-04-07T19:07:36.401Z,12.42
2023-04-07T19:12:38.988Z,12.37
2023-04-07T19:17:41.819Z,12.31
2023-04-07T19:22:44.388Z,12.24
2023-04-07T19:27:46.970Z,12.24
2023-04-07T19:32:49.499Z,12.24
2023-04-07T19:37:52.719Z,12.21
2023-04-07T19:42:57.438Z,12.16
2023-04-07T19:48:00.465Z,12.05
2023-04-07T19:53:02.891Z,11.95
2023-04-07T19:58:05.540Z,11.86
2023-04-07T20:03:08.153Z,11.80
2023-04-07T20:08:11.399Z,11.66
2023-04-07T20:13:13.886Z,11.64
2023-04-07T20:18:19.616Z,11.59
2023-04-07T20:23:22.551Z,11.62
2023-04-07T20:28:25.608Z,11.65
2023-04-07T20:33:28.255Z,11.65
2023-04-07T20:38:30.762Z,11.66
2023-04-07T20:43:33.338Z,11.69
2023-04-07T20:48:35.935Z,11.71
2023-04-07T20:53:38.455Z,11.71
2023-04-07T20:58:40.977Z,11.70
2023-04-07T21:03:43.617Z,11.70
2023-04-07T21:08:46.424Z,11.63
2023-04-07T21:13:49.143Z,11.59
2023-04-07T21:18:51.822Z,11.52
2023-04-07T21:23:54.315Z,11.31
2023-04-07T21:28:56.868Z,11.26
2023-04-07T21:34:00.690Z,11.09
2023-04-07T21:39:03.355Z,11.11
2023-04-07T21:44:09.689Z,10.94
2023-04-07T21:49:14.608Z,10.75
2023-04-07T21:54:17.640Z,10.58
2023-04-07T21:59:20.138Z,10.44
2023-04-07T22:04:22.619Z,10.33
2023-04-07T22:09:26.717Z,10.22
2023-04-07T22:14:29.291Z,10.11
2023-04-07T22:19:31.854Z,9.98
2023-04-07T22:24:35.410Z,9.88
2023-04-07T22:29:38.558Z,9.69
2023-04-07T22:34:41.071Z,9.58
2023-04-07T22:40:02.595Z,9.35
2023-04-07T22:45:07.093Z,9.20
2023-04-07T22:50:13.045Z,9.04
2023-04-07T22:55:15.953Z,8.89
2023-04-07T23:00:18.585Z,8.61
2023-04-07T23:05:20.971Z,8.40
2023-04-07T23:10:23.610Z,8.24
2023-04-07T23:15:27.470Z,8.12
2023-04-07T23:20:30.001Z,7.99
2023-04-07T23:25:32.519Z,7.85
2023-04-07T23:30:37.710Z,7.75
2023-04-07T23:35:40.289Z,7.63
2023-04-07T23:40:43.053Z,7.56
2023-04-07T23:45:45.783Z,7.49
2023-04-07T23:50:50.336Z,7.44
2023-04-07T23:55:52.881Z,7.33
